Time;durP1;ratioP1;P1;durP2;ratioP2;P2;SDS_P1;SDS_P2;PMS_P1;PMS_P2;Temp;Humidity;BMP_temperature;BMP_pressure;BME280_temperature;BME280_humidity;BME280_pressure;Samples;Min_cycle;Max_cycle;Signal;HPM_P1;HPM_P2
2021/06/08 00:01:54;;;;;;;16.88;14.23;;;;;;;15.19;81.68;101585.56;5043410;28;20052;-54
2021/06/08 00:04:20;;;;;;;18.65;16.27;;;;;;;15.22;81.53;101578.53;5034695;28;20543;-55
2021/06/08 00:13:40;;;;;;;15.65;13.85;;;;;;;15.24;80.58;101579.38;5082934;27;20047;-53
2021/06/08 00:23:25;;;;;;;18.00;15.65;;;;;;;15.25;81.26;101575.00;5063588;28;20465;-55
2021/06/08 00:39:39;;;;;;;18.15;16.10;;;;;;;15.31;80.97;101569.66;5079585;28;20044;-53
2021/06/08 01:00:20;;;;;;;17.10;14.43;;;;;;;15.23;81.82;101555.69;5019060;28;20045;-56
2021/06/08 01:02:46;;;;;;;18.70;14.70;;;;;;;15.23;82.12;101556.56;5041807;28;20049;-55
2021/06/08 01:09:30;;;;;;;15.82;13.38;;;;;;;15.21;81.41;101558.31;4901157;22;20047;-55
2021/06/08 01:12:14;;;;;;;19.05;15.68;;;;;;;15.23;81.55;101559.19;5020559;28;20045;-54
2021/06/08 01:14:42;;;;;;;18.50;15.50;;;;;;;15.21;81.89;101560.09;5081916;28;20043;-54
2021/06/08 01:17:08;;;;;;;17.75;15.07;;;;;;;15.23;81.30;101556.56;5078974;28;20036;-54
2021/06/08 01:19:37;;;;;;;16.80;14.77;;;;;;;15.23;81.96;101559.19;5084071;28;20042;-53
2021/06/08 01:22:07;;;;;;;16.65;14.73;;;;;;;15.23;82.61;101561.84;5083605;28;20082;-53
2021/06/08 01:24:34;;;;;;;17.65;15.05;;;;;;;15.19;81.91;101560.13;5064635;28;20039;-51
2021/06/08 01:27:04;;;;;;;16.15;14.40;;;;;;;15.21;81.87;101563.59;5080395;28;20047;-55
2021/06/08 01:29:35;;;;;;;16.90;15.10;;;;;;;15.17;81.65;101561.03;5084666;28;20050;-52
2021/06/08 01:32:04;;;;;;;18.25;15.70;;;;;;;15.13;82.38;101562.78;5065228;28;20066;-56
2021/06/08 01:34:32;;;;;;;17.50;15.07;;;;;;;15.13;82.09;101570.69;5081741;28;20061;-54
2021/06/08 01:37:00;;;;;;;17.08;15.27;;;;;;;15.17;81.93;101561.88;5074425;28;20063;-54
2021/06/08 01:39:28;;;;;;;22.60;16.52;;;;;;;15.14;82.28;101561.91;5085002;28;20040;-52
2021/06/08 01:41:55;;;;;;;18.63;16.63;;;;;;;15.12;82.40;101561.94;5085012;28;20040;-55
2021/06/08 01:44:21;;;;;;;20.35;16.13;;;;;;;15.11;82.56;101561.94;5081655;28;20044;-50
2021/06/08 01:46:46;;;;;;;18.58;16.58;;;;;;;15.09;82.48;101568.97;5080858;28;20459;-54
2021/06/08 01:49:12;;;;;;;19.48;17.20;;;;;;;15.08;82.64;101567.25;5086915;28;20173;-51
2021/06/08 01:51:40;;;;;;;18.30;16.33;;;;;;;15.08;82.58;101565.47;5083234;28;20039;-53
2021/06/08 01:54:18;;;;;;;18.17;16.15;;;;;;;15.10;83.51;101554.94;5082533;28;20039;-54
2021/06/08 01:57:00;;;;;;;22.95;17.02;;;;;;;15.15;82.85;101561.91;5085268;28;20194;-53
2021/06/08 01:59:31;;;;;;;18.92;15.93;;;;;;;15.12;83.14;101563.72;5082084;28;20075;-54
2021/06/08 02:02:10;;;;;;;20.05;17.33;;;;;;;15.09;82.88;101555.81;5081263;28;20458;-50
2021/06/08 02:04:46;;;;;;;19.83;16.92;;;;;;;15.06;83.76;101563.75;5081986;28;20036;-54
2021/06/08 02:07:30;;;;;;;19.73;16.63;;;;;;;15.05;83.19;101562.00;5078512;28;20051;-51
2021/06/08 02:10:20;;;;;;;19.20;16.27;;;;;;;15.06;83.98;101563.75;5079760;28;20061;-53
2021/06/08 02:12:54;;;;;;;19.35;17.17;;;;;;;15.05;83.08;101559.34;5080165;28;20101;-52
2021/06/08 02:15:22;;;;;;;18.70;15.75;;;;;;;15.00;83.82;101564.69;5077201;28;20477;-53
2021/06/08 02:17:53;;;;;;;22.42;16.13;;;;;;;14.97;83.65;101562.06;5079241;28;20411;-54
2021/06/08 02:20:25;;;;;;;18.77;15.50;;;;;;;14.97;83.94;101564.72;5082387;28;20078;-52
2021/06/08 02:22:53;;;;;;;19.13;15.68;;;;;;;14.99;84.14;101568.19;5078594;28;20056;-50
2021/06/08 02:25:21;;;;;;;19.38;16.10;;;;;;;15.01;83.93;101566.44;5082058;28;20389;-55
2021/06/08 02:27:51;;;;;;;18.48;15.80;;;;;;;14.98;84.17;101566.44;5066063;28;20043;-53
2021/06/08 02:30:19;;;;;;;18.98;16.88;;;;;;;14.99;83.87;101570.81;5077895;28;20110;-53
2021/06/08 02:32:46;;;;;;;18.63;16.52;;;;;;;15.01;83.37;101574.34;5080277;28;20033;-54
2021/06/08 02:35:13;;;;;;;19.48;16.95;;;;;;;14.97;83.59;101580.50;5084280;28;20035;-54
2021/06/08 02:37:53;;;;;;;19.60;16.35;;;;;;;15.00;83.39;101584.88;5088362;28;20048;-52
2021/06/08 02:40:22;;;;;;;21.00;16.88;;;;;;;14.84;84.40;101573.59;5081562;28;20036;-55
2021/06/08 02:42:55;;;;;;;18.73;16.35;;;;;;;14.83;84.64;101575.34;5089094;28;20046;-52
2021/06/08 02:45:22;;;;;;;16.65;14.35;;;;;;;14.89;83.29;101575.28;5066061;28;21484;-54
2021/06/08 02:47:50;;;;;;;16.77;14.98;;;;;;;14.93;82.98;101573.53;5080603;28;20064;-51
2021/06/08 02:50:17;;;;;;;19.45;16.08;;;;;;;14.94;83.68;101575.28;5043750;28;20495;-55
2021/06/08 02:59:31;;;;;;;17.40;14.75;;;;;;;15.04;82.39;101576.94;4817196;22;20037;-53
2021/06/08 03:01:58;;;;;;;16.13;14.43;;;;;;;14.92;83.00;101583.16;5056725;28;20032;-54
2021/06/08 03:04:33;;;;;;;17.95;15.15;;;;;;;14.96;83.40;101584.03;5056720;28;20676;-55
2021/06/08 03:07:02;;;;;;;17.17;14.75;;;;;;;14.86;83.74;101577.97;5058187;28;20023;-54
2021/06/08 03:09:37;;;;;;;17.45;15.52;;;;;;;14.91;83.60;101578.81;5053075;28;20397;-53
2021/06/08 03:12:12;;;;;;;20.02;15.82;;;;;;;14.72;84.50;101579.84;5039232;28;20345;-51
2021/06/08 03:14:44;;;;;;;16.95;15.15;;;;;;;14.60;84.05;101583.38;5043456;28;20037;-51
2021/06/08 03:28:43;;;;;;;18.92;14.00;;;;;;;14.12;86.69;101584.53;4342505;22;21566;-54
2021/06/08 03:31:16;;;;;;;14.90;13.18;;;;;;;14.26;85.74;101579.22;5049385;28;20037;-50
2021/06/08 03:33:44;;;;;;;15.57;13.85;;;;;;;14.14;86.29;101580.13;5063305;28;20036;-50
2021/06/08 03:36:12;;;;;;;17.27;14.30;;;;;;;14.20;85.77;101581.00;5058250;28;20051;-51
2021/06/08 03:48:50;;;;;;;14.02;12.52;;;;;;;14.34;84.01;101589.66;5257504;22;20043;-54
2021/06/08 03:51:19;;;;;;;17.77;14.00;;;;;;;14.53;83.13;101579.91;5097182;27;20048;-53
2021/06/08 03:54:13;;;;;;;15.25;13.45;;;;;;;14.43;83.68;101579.09;5079524;28;20301;-51
2021/06/08 04:00:58;;;;;;;18.63;14.63;;;;;;;14.30;85.13;101583.56;4976540;22;20075;-52
2021/06/08 04:07:47;;;;;;;15.98;14.05;;;;;;;14.27;85.21;101588.84;4922539;22;20320;-54
2021/06/08 04:10:21;;;;;;;16.40;14.50;;;;;;;14.13;86.27;101591.53;5080548;28;20545;-55
2021/06/08 04:12:47;;;;;;;17.15;14.30;;;;;;;14.09;86.78;101595.03;5080949;28;20135;-54
2021/06/08 04:15:17;;;;;;;18.38;15.20;;;;;;;14.08;87.00;101595.94;5079005;28;20047;-51
2021/06/08 04:17:43;;;;;;;22.77;15.63;;;;;;;14.01;87.50;101595.97;5059224;28;20048;-52
2021/06/08 04:20:10;;;;;;;18.33;15.45;;;;;;;14.08;86.64;101600.31;5056058;28;20031;-52
2021/06/08 04:22:38;;;;;;;15.85;13.45;;;;;;;14.08;85.84;101595.94;5080451;28;20166;-51
2021/06/08 04:25:07;;;;;;;17.35;15.40;;;;;;;13.95;88.29;101603.00;5060732;28;20028;-52
2021/06/08 04:27:34;;;;;;;17.58;13.93;;;;;;;13.94;87.25;101601.25;5076770;28;20400;-51
2021/06/08 04:30:01;;;;;;;19.65;16.08;;;;;;;13.93;88.56;101596.88;5082461;28;20129;-50
2021/06/08 04:32:26;;;;;;;20.33;15.65;;;;;;;13.93;88.52;101598.66;5056644;28;20043;-55
2021/06/08 04:34:56;;;;;;;15.77;14.07;;;;;;;14.01;88.14;101601.22;5078230;28;20044;-51
2021/06/08 04:37:22;;;;;;;16.92;14.82;;;;;;;14.12;87.34;101594.16;5076352;28;20111;-54
2021/06/08 04:39:51;;;;;;;17.40;14.82;;;;;;;14.07;87.02;101603.84;5079958;28;20131;-54
2021/06/08 04:42:20;;;;;;;18.58;14.77;;;;;;;14.16;86.93;101595.03;5083827;28;20530;-51
2021/06/08 04:44:50;;;;;;;17.80;15.15;;;;;;;14.16;87.53;101595.03;5080415;28;20043;-51
2021/06/08 04:47:18;;;;;;;18.60;14.85;;;;;;;14.20;86.83;101602.03;5082142;28;20108;-50
2021/06/08 04:49:44;;;;;;;;;;;;;;;14.18;87.27;101599.41;5081051;28;20066;-52
2021/06/08 04:52:16;;;;;;;18.80;15.60;;;;;;;14.20;87.46;101597.63;5085191;28;20011;-54
2021/06/08 04:58:54;;;;;;;18.15;15.13;;;;;;;14.41;86.13;101599.28;5178743;22;20591;-54
2021/06/08 05:09:03;;;;;;;19.55;16.02;;;;;;;14.51;87.63;101605.38;5017680;28;20056;-49
2021/06/08 05:11:52;;;;;;;19.35;16.23;;;;;;;14.51;87.41;101608.00;5029965;28;20041;-50
2021/06/08 05:14:51;;;;;;;20.08;16.00;;;;;;;14.52;87.74;101620.25;5221187;22;20062;-84
2021/06/08 05:17:19;;;;;;;;;;;;;;;14.66;86.59;101603.53;5091543;28;20046;-83
2021/06/08 05:19:53;;;;;;;17.80;15.32;;;;;;;14.83;86.92;101601.69;5103078;28;19924;-83
2021/06/08 05:22:22;;;;;;;19.23;16.85;;;;;;;14.83;86.66;101604.31;5028260;28;20123;-84
2021/06/08 05:24:56;;;;;;;22.42;18.70;;;;;;;14.79;87.17;101603.44;5090404;28;20182;-84
2021/06/08 05:27:32;;;;;;;22.02;17.83;;;;;;;14.90;87.36;101632.34;5090607;28;20410;-83
2021/06/08 05:29:59;;;;;;;20.17;16.55;;;;;;;14.93;87.72;101621.78;5066399;28;20584;-84
2021/06/08 05:32:26;;;;;;;20.10;16.38;;;;;;;14.97;87.46;101610.34;5091920;28;20070;-84
2021/06/08 05:34:52;;;;;;;17.95;15.50;;;;;;;15.20;86.29;101622.41;5093663;28;20031;-84
2021/06/08 05:37:19;;;;;;;18.15;15.60;;;;;;;15.22;85.56;101612.75;5076849;28;20036;-84
2021/06/08 05:39:46;;;;;;;21.33;16.08;;;;;;;15.12;86.02;101613.75;5092234;28;20071;-84
2021/06/08 05:42:17;;;;;;;21.77;17.33;;;;;;;15.12;86.37;101626.91;5083097;28;20100;-84
2021/06/08 05:44:43;;;;;;;19.52;15.77;;;;;;;15.29;85.47;101614.44;5054076;28;20055;-83
2021/06/08 05:47:09;;;;;;;20.58;16.55;;;;;;;15.26;85.69;101617.13;5074586;28;20023;-83
2021/06/08 05:49:38;;;;;;;18.63;16.13;;;;;;;15.25;85.67;101622.41;5087635;28;20111;-84
2021/06/08 05:52:10;;;;;;;19.70;15.93;;;;;;;15.23;85.68;101624.16;5090690;28;20055;-84
2021/06/08 05:54:36;;;;;;;21.40;17.27;;;;;;;15.30;85.65;101615.34;5087888;28;20040;-84
2021/06/08 05:57:07;;;;;;;21.45;17.45;;;;;;;15.43;85.65;101616.09;5099244;28;20035;-84
2021/06/08 05:59:32;;;;;;;19.63;17.30;;;;;;;15.38;85.45;101617.88;5053023;28;20053;-84
2021/06/08 06:01:58;;;;;;;22.27;18.27;;;;;;;15.58;84.70;101613.28;5080812;28;20048;-83
2021/06/08 06:04:25;;;;;;;20.63;17.90;;;;;;;15.56;84.76;101611.56;5088845;28;20110;-83
2021/06/08 06:06:52;;;;;;;22.98;17.83;;;;;;;15.53;85.27;101623.00;5090506;28;20047;-85
2021/06/08 06:09:22;;;;;;;25.42;19.98;;;;;;;15.57;85.17;101616.81;5087132;28;20576;-84
2021/06/08 06:11:51;;;;;;;26.10;21.00;;;;;;;15.64;84.96;101617.63;5074962;28;20032;-84
2021/06/08 06:14:24;;;;;;;25.02;21.00;;;;;;;15.66;84.78;101632.53;5070462;28;20143;-84
2021/06/08 06:16:54;;;;;;;31.60;22.70;;;;;;;15.72;84.43;101628.97;5087137;28;20380;-84
2021/06/08 06:19:25;;;;;;;29.92;23.33;;;;;;;15.88;84.93;101620.91;5087107;28;20058;-84
2021/06/08 06:21:53;;;;;;;32.90;26.27;;;;;;;15.91;83.58;101612.94;5071128;28;20046;-84
2021/06/08 06:24:26;;;;;;;34.55;26.02;;;;;;;15.98;83.04;101610.22;5047883;28;20070;-84
2021/06/08 06:26:52;;;;;;;33.90;27.05;;;;;;;16.61;78.91;101611.16;5109696;27;20015;-84
2021/06/08 06:29:18;;;;;;;35.08;27.63;;;;;;;16.25;80.51;101612.53;5072064;28;20046;-84
2021/06/08 06:31:48;;;;;;;34.05;27.38;;;;;;;16.09;81.71;101643.50;5103826;28;20043;-84
2021/06/08 06:34:19;;;;;;;34.38;26.33;;;;;;;16.06;81.32;101612.78;5070697;28;20051;-84
2021/06/08 06:36:48;;;;;;;32.53;26.20;;;;;;;16.09;81.12;101617.13;5054749;28;20067;-84
2021/06/08 06:39:21;;;;;;;32.55;27.05;;;;;;;16.08;81.49;101628.59;5085975;28;20051;-84
2021/06/08 06:41:50;;;;;;;34.33;26.65;;;;;;;16.16;81.29;101624.09;5101029;28;20269;-84
2021/06/08 06:44:19;;;;;;;31.00;24.65;;;;;;;16.16;80.17;101622.31;5084792;28;20088;-84
2021/06/08 06:46:46;;;;;;;31.90;26.27;;;;;;;16.25;79.16;101647.69;5069528;28;20070;-83
2021/06/08 06:49:12;;;;;;;30.45;25.20;;;;;;;16.31;79.63;101626.53;5070510;28;20069;-84
2021/06/08 06:51:38;;;;;;;32.92;25.13;;;;;;;16.36;78.96;101641.44;5068083;28;20050;-84
2021/06/08 06:54:04;;;;;;;31.88;25.15;;;;;;;16.40;78.77;101640.50;5085593;28;20039;-84
2021/06/08 06:56:30;;;;;;;33.83;25.40;;;;;;;16.74;78.16;101645.28;5073400;28;20502;-84
2021/06/08 06:58:57;;;;;;;32.72;25.02;;;;;;;16.88;78.21;101635.41;5098510;28;20105;-84
2021/06/08 07:01:24;;;;;;;29.98;25.83;;;;;;;16.78;78.11;101625.84;5085032;28;20237;-84
2021/06/08 07:03:56;;;;;;;29.30;24.13;;;;;;;16.78;77.42;101633.78;5084722;28;20036;-84
2021/06/08 07:06:22;;;;;;;31.88;23.30;;;;;;;16.80;78.14;101626.72;5078094;28;20066;-84
2021/06/08 07:08:53;;;;;;;30.13;23.00;;;;;;;16.89;78.05;101621.34;5055143;28;20035;-84
2021/06/08 07:11:20;;;;;;;27.58;22.00;;;;;;;16.92;77.91;101623.94;5082041;28;20050;-84
2021/06/08 07:13:46;;;;;;;24.75;21.52;;;;;;;16.96;77.49;101636.19;5071004;28;20143;-84
2021/06/08 07:16:14;;;;;;;26.48;20.10;;;;;;;16.98;77.03;101623.81;5068041;28;20089;-84
2021/06/08 07:18:42;;;;;;;22.07;19.03;;;;;;;17.11;76.50;101632.44;5066818;28;20490;-84
2021/06/08 07:21:08;;;;;;;22.92;19.08;;;;;;;17.11;75.71;101636.81;5051095;28;20311;-84
2021/06/08 07:23:35;;;;;;;22.60;20.13;;;;;;;17.16;75.07;101629.69;5067599;28;20039;-84
2021/06/08 07:26:01;;;;;;;23.52;19.85;;;;;;;17.15;75.35;101630.59;5087828;28;20031;-84
2021/06/08 07:28:27;;;;;;;22.55;18.88;;;;;;;17.39;74.34;101641.63;5085722;28;20092;-84
2021/06/08 07:30:55;;;;;;;19.23;17.17;;;;;;;17.36;74.16;101631.97;5081763;28;20047;-84
2021/06/08 07:34:07;;;;;;;20.43;16.00;;;;;;;17.42;73.28;101636.28;5069620;28;20349;-84
2021/06/08 07:36:41;;;;;;;16.10;13.85;;;;;;;17.34;73.30;101645.22;5081340;28;20044;-84
2021/06/08 07:39:21;;;;;;;17.70;14.18;;;;;;;17.31;73.30;101640.00;5083159;28;20043;-84
2021/06/08 07:41:56;;;;;;;17.20;14.13;;;;;;;17.26;73.42;101639.19;5083301;28;20047;-84
2021/06/08 07:44:29;;;;;;;18.45;16.45;;;;;;;17.35;71.85;101643.47;5087829;28;20072;-84
2021/06/08 07:46:58;;;;;;;18.60;15.38;;;;;;;17.40;72.18;101643.38;5068248;28;20081;-83
2021/06/08 07:49:25;;;;;;;19.05;14.88;;;;;;;17.37;71.90;101652.22;5085958;28;20051;-84
2021/06/08 07:51:51;;;;;;;17.83;13.35;;;;;;;17.42;71.56;101649.50;5104826;28;20067;-83
2021/06/08 07:54:21;;;;;;;16.23;12.50;;;;;;;17.42;71.25;101642.47;5050649;28;20067;-84
2021/06/08 07:56:47;;;;;;;14.75;12.90;;;;;;;17.43;70.27;101648.63;5102225;28;20285;-84
2021/06/08 07:59:15;;;;;;;20.73;16.85;;;;;;;17.60;71.18;101643.91;5083181;28;20107;-84
2021/06/08 08:01:41;;;;;;;20.47;17.00;;;;;;;17.59;72.03;101639.50;5099741;28;20686;-84
2021/06/08 08:04:10;;;;;;;24.20;18.48;;;;;;;17.58;72.14;101637.75;5083113;28;20290;-84
2021/06/08 08:06:36;;;;;;;21.17;17.45;;;;;;;17.81;70.92;101633.81;5083366;28;20043;-84
2021/06/08 08:09:05;;;;;;;19.58;16.58;;;;;;;17.78;71.13;101649.75;5072722;28;20050;-83
2021/06/08 08:11:32;;;;;;;25.65;21.70;;;;;;;18.23;71.20;101636.50;5076247;28;20035;-84
2021/06/08 08:13:59;;;;;;;27.42;22.00;;;;;;;18.07;72.64;101643.91;5070518;28;20055;-84
2021/06/08 08:16:28;;;;;;;28.55;23.05;;;;;;;17.80;73.99;101646.16;5088340;28;20031;-84
2021/06/08 08:18:54;;;;;;;29.17;22.63;;;;;;;17.83;73.39;101642.59;5073382;28;20059;-84
2021/06/08 08:21:23;;;;;;;29.23;21.95;;;;;;;17.86;73.33;101656.63;5087188;28;20069;-85
2021/06/08 08:23:49;;;;;;;26.90;22.50;;;;;;;17.80;73.84;101650.59;5077375;28;20027;-83
2021/06/08 08:26:15;;;;;;;27.92;22.17;;;;;;;17.78;73.35;101655.91;5091511;28;20436;-82
2021/06/08 08:28:42;;;;;;;28.67;22.52;;;;;;;17.77;73.73;101648.00;5069980;28;20049;-84
2021/06/08 08:31:14;;;;;;;28.13;21.40;;;;;;;17.89;73.06;101653.06;5055480;28;20488;-84
2021/06/08 08:33:39;;;;;;;27.02;21.98;;;;;;;17.89;71.83;101642.47;5083386;28;20463;-84
2021/06/08 08:36:06;;;;;;;24.10;20.48;;;;;;;17.85;72.98;101632.88;5073212;28;20085;-83
2021/06/08 08:38:32;;;;;;;25.40;21.60;;;;;;;18.14;72.72;101632.28;5073726;28;20475;-84
2021/06/08 08:40:59;;;;;;;25.73;21.05;;;;;;;17.96;73.24;101633.53;5072261;28;20112;-84
2021/06/08 08:43:26;;;;;;;23.45;19.40;;;;;;;17.87;73.68;101629.28;5072320;28;20071;-84
2021/06/08 08:45:52;;;;;;;25.92;17.70;;;;;;;17.89;71.87;101637.19;5054655;28;20039;-84
2021/06/08 08:48:21;;;;;;;21.63;18.08;;;;;;;18.19;70.56;101637.47;5069612;28;20690;-84
2021/06/08 08:50:48;;;;;;;20.00;17.25;;;;;;;18.13;70.68;101635.84;5076754;28;20261;-84
2021/06/08 08:53:18;;;;;;;20.00;17.10;;;;;;;18.11;71.18;101636.75;5088978;28;20042;-83
2021/06/08 08:55:45;;;;;;;22.33;17.80;;;;;;;17.93;71.82;101644.19;5062755;28;20083;-84
2021/06/08 08:58:15;;;;;;;22.23;16.83;;;;;;;18.01;69.87;101628.16;5089834;28;20100;-84
2021/06/08 09:00:43;;;;;;;20.33;16.75;;;;;;;18.01;71.09;101654.59;5064080;28;20052;-83
2021/06/08 09:03:13;;;;;;;21.70;16.92;;;;;;;17.98;71.17;101626.44;5086970;28;20174;-84
2021/06/08 09:05:39;;;;;;;20.75;17.67;;;;;;;18.00;72.71;101643.16;5085793;28;20087;-84
2021/06/08 09:08:07;;;;;;;21.13;17.77;;;;;;;17.95;73.41;101630.94;5064065;28;20051;-84
2021/06/08 09:10:41;;;;;;;22.17;17.83;;;;;;;17.96;72.59;101627.41;5112514;28;20063;-84
2021/06/08 09:13:08;;;;;;;21.52;17.67;;;;;;;18.06;73.07;101623.66;5087979;28;20101;-83
2021/06/08 09:15:41;;;;;;;18.58;15.63;;;;;;;18.10;72.36;101648.28;5064808;28;20098;-83
2021/06/08 09:18:08;;;;;;;21.02;15.40;;;;;;;17.92;71.79;101616.00;5044839;28;20138;-84
2021/06/08 09:20:36;;;;;;;20.48;14.70;;;;;;;17.86;70.17;101653.09;5045045;28;20471;-84
2021/06/08 09:23:05;;;;;;;15.88;14.10;;;;;;;17.90;69.83;101628.31;5074332;28;20035;-83
2021/06/08 09:25:33;;;;;;;;;;;;;;;17.88;69.25;101625.72;5071311;28;20121;-84
2021/06/08 09:28:19;;;;;;;;;;;;;;;17.94;70.10;101629.19;5102990;27;19924;-83
2021/06/08 09:30:45;;;;;;;17.42;14.05;;;;;;;17.91;69.62;101624.81;5074610;28;19930;-84
2021/06/08 09:33:32;;;;;;;16.80;14.55;;;;;;;17.86;70.21;101624.00;5071619;28;20044;-83
2021/06/08 09:36:01;;;;;;;16.88;13.65;;;;;;;18.02;69.22;101619.31;5105148;28;20048;-84
2021/06/08 09:38:43;;;;;;;15.00;12.80;;;;;;;18.23;67.59;101617.13;5088024;28;20047;-84
2021/06/08 09:41:21;;;;;;;16.35;13.40;;;;;;;18.24;68.48;101621.53;5090255;28;20505;-83
2021/06/08 09:44:03;;;;;;;14.77;12.50;;;;;;;18.12;69.27;101612.91;5084071;28;20559;-83
2021/06/08 09:46:43;;;;;;;14.27;11.75;;;;;;;18.08;68.43;101613.88;5077874;28;20044;-83
2021/06/08 09:49:13;;;;;;;15.10;11.73;;;;;;;18.47;68.13;101608.66;5088354;28;20464;-82
2021/06/08 09:51:56;;;;;;;15.52;12.80;;;;;;;18.50;68.75;101607.72;5088628;28;20040;-83
2021/06/08 09:54:34;;;;;;;16.63;12.77;;;;;;;18.50;68.79;101610.34;5066547;28;20043;-83
2021/06/08 09:57:14;;;;;;;16.13;13.45;;;;;;;18.50;68.69;101607.72;5074876;28;20121;-83
2021/06/08 09:59:46;;;;;;;17.88;13.43;;;;;;;18.48;68.91;101604.22;5088459;28;20036;-83
2021/06/08 10:02:25;;;;;;;26.88;14.85;;;;;;;18.61;66.48;101603.03;5097083;28;20043;-83
2021/06/08 10:04:53;;;;;;;18.30;14.73;;;;;;;18.60;67.30;101614.53;5088412;28;20067;-83
2021/06/08 10:07:27;;;;;;;15.77;13.25;;;;;;;18.61;66.50;101592.44;5090548;28;20047;-83
2021/06/08 10:10:09;;;;;;;17.58;13.45;;;;;;;18.74;68.51;101589.50;5072792;28;20047;-83
2021/06/08 10:13:08;;;;;;;15.45;12.45;;;;;;;18.75;67.59;101597.41;5057432;28;20527;-83
2021/06/08 10:15:49;;;;;;;13.10;11.23;;;;;;;18.84;66.50;101593.66;5061576;22;20056;-53
2021/06/08 10:18:15;;;;;;;14.27;11.60;;;;;;;19.03;64.24;101597.63;5023476;28;20045;-51
2021/06/08 10:20:56;;;;;;;12.63;11.15;;;;;;;18.87;66.66;101583.91;5034758;28;20495;-51
2021/06/08 10:23:29;;;;;;;14.25;11.07;;;;;;;19.38;63.57;101581.69;5036271;28;20037;-52
2021/06/08 10:26:00;;;;;;;13.98;11.20;;;;;;;19.31;64.50;101582.78;5030715;28;20525;-53
2021/06/08 10:28:28;;;;;;;15.23;11.55;;;;;;;19.56;62.06;101581.22;5019360;28;20131;-53
2021/06/08 10:30:55;;;;;;;12.75;10.63;;;;;;;19.14;62.23;101578.78;5033050;28;20481;-52
2021/06/08 10:33:25;;;;;;;13.48;10.32;;;;;;;19.24;62.21;101590.03;5012912;28;20407;-52
2021/06/08 10:35:52;;;;;;;13.32;10.50;;;;;;;19.01;63.83;101582.66;5034643;28;20036;-55
2021/06/08 10:38:19;;;;;;;13.77;11.20;;;;;;;19.07;64.03;101586.97;5014843;28;20049;-51
2021/06/08 10:40:52;;;;;;;13.68;11.18;;;;;;;19.35;62.35;101582.66;5014774;28;20163;-51
2021/06/08 10:43:24;;;;;;;12.57;11.20;;;;;;;19.49;62.75;101574.31;5030956;28;20389;-52
2021/06/08 10:45:54;;;;;;;11.65;10.05;;;;;;;19.49;60.92;101579.63;5010597;28;20048;-50
2021/06/08 10:48:31;;;;;;;12.20;9.57;;;;;;;19.40;63.86;101585.19;5033409;28;20041;-51
2021/06/08 10:51:18;;;;;;;11.13;9.30;;;;;;;19.44;61.54;101581.56;5022751;28;20137;-55
2021/06/08 10:54:16;;;;;;;8.73;7.45;;;;;;;19.47;61.25;101573.50;5031672;28;20036;-55
2021/06/08 10:56:56;;;;;;;8.77;7.88;;;;;;;19.60;60.48;101591.72;5032686;28;20036;-53
2021/06/08 10:59:35;;;;;;;10.20;8.00;;;;;;;19.79;58.23;101586.78;5037174;28;20029;-54
2021/06/08 11:02:01;;;;;;;10.02;7.88;;;;;;;19.78;58.65;101579.75;5035082;28;20644;-52
2021/06/08 11:04:47;;;;;;;10.40;8.40;;;;;;;20.10;57.64;101585.91;5029782;28;20253;-51
2021/06/08 11:07:13;;;;;;;11.23;7.40;;;;;;;19.92;58.39;101582.88;5034182;28;20501;-51
2021/06/08 11:09:40;;;;;;;10.25;8.05;;;;;;;19.73;61.13;101583.38;5031984;28;20381;-53
2021/06/08 11:12:08;;;;;;;18.05;8.48;;;;;;;19.49;62.38;101586.72;5030945;28;20112;-54
2021/06/08 11:17:10;;;;;;;10.55;8.02;;;;;;;19.66;62.27;101592.44;5035740;28;20040;-53
2021/06/08 11:19:45;;;;;;;9.38;7.70;;;;;;;19.51;61.88;101583.13;5033040;28;20040;-51
2021/06/08 11:22:13;;;;;;;11.05;8.88;;;;;;;19.47;60.52;101584.13;5032876;28;20452;-52
2021/06/08 11:24:48;;;;;;;11.68;9.82;;;;;;;19.80;61.38;101588.53;5032474;28;20549;-53
2021/06/08 11:27:15;;;;;;;11.73;9.15;;;;;;;19.81;61.20;101590.28;5018507;28;20048;-51
2021/06/08 11:29:45;;;;;;;11.13;8.60;;;;;;;20.02;57.68;101589.66;5014960;28;20299;-54
2021/06/08 11:32:32;;;;;;;10.45;8.70;;;;;;;19.60;58.40;101589.94;5033476;28;20078;-52
2021/06/08 11:35:18;;;;;;;10.07;8.73;;;;;;;19.83;59.23;101584.03;5016136;28;20539;-52
2021/06/08 11:37:57;;;;;;;13.23;8.85;;;;;;;19.54;60.44;101583.03;5004369;28;20049;-53
2021/06/08 11:40:35;;;;;;;12.00;9.65;;;;;;;19.47;62.27;101576.16;5031652;28;20075;-54
2021/06/08 11:43:10;;;;;;;11.40;9.40;;;;;;;19.66;57.75;101586.25;5034973;28;20044;-54
2021/06/08 11:45:42;;;;;;;9.45;8.45;;;;;;;19.66;56.76;101587.13;5033988;28;20493;-52
2021/06/08 11:48:34;;;;;;;11.13;8.32;;;;;;;19.56;60.44;101573.25;5018076;28;20044;-54
2021/06/08 11:51:02;;;;;;;10.25;8.52;;;;;;;19.66;57.26;101584.47;5029454;28;20049;-53
2021/06/08 11:53:28;;;;;;;9.93;8.90;;;;;;;19.54;60.37;101571.56;5014209;28;20128;-52
2021/06/08 11:56:05;;;;;;;9.32;8.13;;;;;;;19.50;60.76;101576.06;5031723;28;20045;-55
2021/06/08 11:58:33;;;;;;;9.40;7.78;;;;;;;19.64;62.79;101577.47;5031475;28;20050;-51
2021/06/08 12:00:59;;;;;;;;;;;;;;;20.48;55.93;101559.94;5017319;28;20033;-53
2021/06/08 12:03:26;;;;;;;10.00;8.20;;;;;;;20.15;57.48;101568.06;5029562;28;19920;-51
2021/06/08 12:05:52;;;;;;;10.88;8.10;;;;;;;20.03;61.21;101564.84;5014823;28;20052;-50
2021/06/08 12:08:26;;;;;;;10.43;8.82;;;;;;;20.35;59.27;101568.31;5029876;28;20037;-51
2021/06/08 12:10:53;;;;;;;11.45;9.82;;;;;;;20.22;59.04;101564.31;5011006;28;20049;-52
2021/06/08 12:13:30;;;;;;;10.60;9.45;;;;;;;20.45;55.68;101568.00;5033616;28;20036;-51
2021/06/08 12:15:58;;;;;;;10.63;9.43;;;;;;;20.30;55.35;101566.69;5029850;28;20100;-51
2021/06/08 12:18:33;;;;;;;12.55;10.90;;;;;;;20.13;58.21;101564.56;5030849;28;20273;-54
2021/06/08 12:20:59;;;;;;;11.25;10.15;;;;;;;19.99;59.37;101557.91;5013561;28;20106;-53
2021/06/08 12:23:36;;;;;;;10.20;9.20;;;;;;;20.04;56.38;101560.44;5027081;28;20354;-51
2021/06/08 12:26:09;;;;;;;10.32;9.23;;;;;;;20.07;56.39;101555.03;5031343;28;20591;-51
2021/06/08 12:28:40;;;;;;;9.77;8.77;;;;;;;20.84;54.77;101557.91;5032376;28;20047;-52
2021/06/08 12:31:10;;;;;;;10.55;8.57;;;;;;;20.37;56.43;101553.19;5027642;28;20322;-59
2021/06/08 12:33:40;;;;;;;11.63;9.27;;;;;;;20.82;53.96;101553.56;5030808;28;20490;-54
2021/06/08 12:38:57;;;;;;;11.88;10.57;;;;;;;21.32;52.60;101552.75;5138412;27;20221;-85
2021/06/08 12:41:27;;;;;;;11.35;10.25;;;;;;;21.17;54.61;101557.69;5111994;27;20051;-85
2021/06/08 12:43:55;;;;;;;13.75;10.05;;;;;;;21.22;52.42;101560.19;5113816;27;20126;-85
2021/06/08 12:46:28;;;;;;;11.00;9.38;;;;;;;21.24;53.05;101583.13;5081623;27;20058;-82
2021/06/08 12:49:15;;;;;;;10.73;9.70;;;;;;;21.36;52.64;101557.03;5089645;28;20035;-83
2021/06/08 12:51:51;;;;;;;11.73;10.52;;;;;;;21.21;54.55;101577.94;5086659;28;20888;-82
2021/06/08 12:54:35;;;;;;;9.73;8.45;;;;;;;21.00;52.47;101562.72;5095704;28;20055;-84
2021/06/08 12:57:09;;;;;;;10.90;8.65;;;;;;;21.02;53.91;101560.88;5097346;27;20556;-84
2021/06/08 12:59:50;;;;;;;10.93;8.45;;;;;;;20.54;56.91;101565.94;5089207;28;20039;-84
2021/06/08 13:02:17;;;;;;;10.07;9.07;;;;;;;20.45;55.62;101554.75;5102943;27;20047;-84
2021/06/08 13:04:44;;;;;;;11.23;10.13;;;;;;;20.38;56.99;101549.63;5086677;28;20058;-84
2021/06/08 13:07:20;;;;;;;12.13;10.57;;;;;;;20.44;56.99;101539.75;5114666;27;20091;-84
2021/06/08 13:09:49;;;;;;;12.77;11.32;;;;;;;21.09;52.46;101539.34;5096903;28;20028;-83
2021/06/08 13:12:16;;;;;;;11.48;10.27;;;;;;;20.71;53.95;101541.53;5096679;28;20551;-84
2021/06/08 13:14:43;;;;;;;11.15;9.95;;;;;;;20.46;55.62;101546.72;5089717;27;20067;-85